sensor_id;sensor_type;location;lat;lon;timestamp;P1;durP1;ratioP1;P2;durP2;ratioP2
31004;SDS011;17676;52.254;4.490;2023-07-24T00:01:01;7.85;;;3.00;;
31004;SDS011;17676;52.254;4.490;2023-07-24T00:03:26;5.28;;;2.10;;
31004;SDS011;17676;52.254;4.490;2023-07-24T00:05:52;7.15;;;2.40;;
31004;SDS011;17676;52.254;4.490;2023-07-24T00:08:17;7.97;;;2.50;;
31004;SDS011;17676;52.254;4.490;2023-07-24T00:10:42;6.25;;;2.90;;
31004;SDS011;17676;52.254;4.490;2023-07-24T00:13:08;5.55;;;2.78;;
31004;SDS011;17676;52.254;4.490;2023-07-24T00:15:33;6.72;;;2.97;;
31004;SDS011;17676;52.254;4.490;2023-07-24T00:17:59;6.90;;;2.92;;
31004;SDS011;17676;52.254;4.490;2023-07-24T00:20:24;6.32;;;2.60;;
31004;SDS011;17676;52.254;4.490;2023-07-24T00:22:51;5.53;;;2.47;;
31004;SDS011;17676;52.254;4.490;2023-07-24T00:25:16;8.30;;;2.40;;
31004;SDS011;17676;52.254;4.490;2023-07-24T00:27:41;7.05;;;2.63;;
31004;SDS011;17676;52.254;4.490;2023-07-24T00:30:07;8.00;;;2.60;;
31004;SDS011;17676;52.254;4.490;2023-07-24T00:32:33;8.55;;;2.78;;
31004;SDS011;17676;52.254;4.490;2023-07-24T00:34:58;6.70;;;3.30;;
31004;SDS011;17676;52.254;4.490;2023-07-24T00:37:24;7.25;;;2.45;;
31004;SDS011;17676;52.254;4.490;2023-07-24T00:39:49;5.85;;;2.60;;
31004;SDS011;17676;52.254;4.490;2023-07-24T00:42:15;7.80;;;2.65;;
31004;SDS011;17676;52.254;4.490;2023-07-24T00:44:40;5.43;;;2.25;;
31004;SDS011;17676;52.254;4.490;2023-07-24T00:47:06;7.22;;;2.50;;
31004;SDS011;17676;52.254;4.490;2023-07-24T00:49:32;10.30;;;2.72;;
31004;SDS011;17676;52.254;4.490;2023-07-24T00:51:57;6.13;;;2.50;;
31004;SDS011;17676;52.254;4.490;2023-07-24T00:54:22;5.70;;;2.45;;
31004;SDS011;17676;52.254;4.490;2023-07-24T00:56:48;5.40;;;2.28;;
31004;SDS011;17676;52.254;4.490;2023-07-24T00:59:14;8.95;;;2.60;;
31004;SDS011;17676;52.254;4.490;2023-07-24T01:01:40;14.75;;;2.75;;
31004;SDS011;17676;52.254;4.490;2023-07-24T01:04:06;10.77;;;3.38;;
31004;SDS011;17676;52.254;4.490;2023-07-24T01:06:32;7.05;;;3.13;;
31004;SDS011;17676;52.254;4.490;2023-07-24T01:08:57;8.80;;;2.92;;
31004;SDS011;17676;52.254;4.490;2023-07-24T01:11:32;7.32;;;2.25;;
31004;SDS011;17676;52.254;4.490;2023-07-24T01:14:24;7.32;;;2.20;;
31004;SDS011;17676;52.254;4.490;2023-07-24T01:17:08;5.55;;;2.13;;
31004;SDS011;17676;52.254;4.490;2023-07-24T01:25:23;5.72;;;2.03;;
31004;SDS011;17676;52.254;4.490;2023-07-24T01:27:56;6.70;;;2.05;;
31004;SDS011;17676;52.254;4.490;2023-07-24T01:30:22;10.25;;;3.17;;
31004;SDS011;17676;52.254;4.490;2023-07-24T01:32:47;8.85;;;2.42;;
31004;SDS011;17676;52.254;4.490;2023-07-24T01:35:13;7.57;;;2.33;;
31004;SDS011;17676;52.254;4.490;2023-07-24T01:37:39;4.88;;;1.88;;
31004;SDS011;17676;52.254;4.490;2023-07-24T01:40:06;9.23;;;2.70;;
31004;SDS011;17676;52.254;4.490;2023-07-24T01:42:33;12.93;;;2.63;;
31004;SDS011;17676;52.254;4.490;2023-07-24T01:44:59;10.13;;;2.83;;
31004;SDS011;17676;52.254;4.490;2023-07-24T01:47:24;9.75;;;2.28;;
31004;SDS011;17676;52.254;4.490;2023-07-24T01:49:50;6.35;;;2.30;;
31004;SDS011;17676;52.254;4.490;2023-07-24T01:52:16;11.63;;;2.83;;
31004;SDS011;17676;52.254;4.490;2023-07-24T01:54:41;5.43;;;2.58;;
31004;SDS011;17676;52.254;4.490;2023-07-24T01:57:07;5.60;;;2.00;;
31004;SDS011;17676;52.254;4.490;2023-07-24T01:59:32;11.63;;;2.67;;
31004;SDS011;17676;52.254;4.490;2023-07-24T02:01:58;7.15;;;2.53;;
31004;SDS011;17676;52.254;4.490;2023-07-24T02:04:23;8.10;;;2.85;;
31004;SDS011;17676;52.254;4.490;2023-07-24T02:06:49;7.13;;;2.42;;
31004;SDS011;17676;52.254;4.490;2023-07-24T02:09:15;10.98;;;2.95;;
31004;SDS011;17676;52.254;4.490;2023-07-24T02:11:41;11.35;;;3.03;;
31004;SDS011;17676;52.254;4.490;2023-07-24T02:14:06;11.13;;;3.47;;
31004;SDS011;17676;52.254;4.490;2023-07-24T02:16:32;9.07;;;3.05;;
31004;SDS011;17676;52.254;4.490;2023-07-24T02:18:58;7.85;;;2.72;;
31004;SDS011;17676;52.254;4.490;2023-07-24T02:21:23;8.27;;;2.83;;
31004;SDS011;17676;52.254;4.490;2023-07-24T02:23:48;12.88;;;2.55;;
31004;SDS011;17676;52.254;4.490;2023-07-24T02:26:14;6.60;;;2.75;;
31004;SDS011;17676;52.254;4.490;2023-07-24T02:28:39;7.18;;;3.15;;
31004;SDS011;17676;52.254;4.490;2023-07-24T02:31:05;10.05;;;3.42;;
31004;SDS011;17676;52.254;4.490;2023-07-24T02:33:30;7.28;;;2.35;;
31004;SDS011;17676;52.254;4.490;2023-07-24T02:35:56;5.47;;;2.28;;
31004;SDS011;17676;52.254;4.490;2023-07-24T02:38:21;9.10;;;2.92;;
31004;SDS011;17676;52.254;4.490;2023-07-24T02:40:47;7.38;;;2.55;;
31004;SDS011;17676;52.254;4.490;2023-07-24T02:43:12;12.50;;;2.78;;
31004;SDS011;17676;52.254;4.490;2023-07-24T02:45:37;8.43;;;2.80;;
31004;SDS011;17676;52.254;4.490;2023-07-24T02:48:03;12.35;;;3.03;;
31004;SDS011;17676;52.254;4.490;2023-07-24T02:50:29;13.48;;;2.90;;
31004;SDS011;17676;52.254;4.490;2023-07-24T02:52:54;8.40;;;2.35;;
31004;SDS011;17676;52.254;4.490;2023-07-24T02:55:20;8.55;;;2.20;;
31004;SDS011;17676;52.254;4.490;2023-07-24T02:57:45;8.15;;;3.03;;
31004;SDS011;17676;52.254;4.490;2023-07-24T03:00:11;11.55;;;3.22;;
31004;SDS011;17676;52.254;4.490;2023-07-24T03:02:37;7.10;;;2.80;;
31004;SDS011;17676;52.254;4.490;2023-07-24T03:05:03;10.75;;;3.22;;
31004;SDS011;17676;52.254;4.490;2023-07-24T03:07:29;8.15;;;2.70;;
31004;SDS011;17676;52.254;4.490;2023-07-24T03:09:54;7.28;;;2.20;;
31004;SDS011;17676;52.254;4.490;2023-07-24T03:12:19;9.63;;;2.97;;
31004;SDS011;17676;52.254;4.490;2023-07-24T03:14:45;13.32;;;3.15;;
31004;SDS011;17676;52.254;4.490;2023-07-24T03:17:10;11.93;;;2.80;;
31004;SDS011;17676;52.254;4.490;2023-07-24T03:19:36;6.70;;;2.80;;
31004;SDS011;17676;52.254;4.490;2023-07-24T03:22:01;8.40;;;2.95;;
31004;SDS011;17676;52.254;4.490;2023-07-24T03:24:27;8.45;;;2.50;;
31004;SDS011;17676;52.254;4.490;2023-07-24T03:26:52;9.85;;;2.90;;
31004;SDS011;17676;52.254;4.490;2023-07-24T03:29:18;12.23;;;3.50;;
31004;SDS011;17676;52.254;4.490;2023-07-24T03:31:43;8.77;;;2.55;;
31004;SDS011;17676;52.254;4.490;2023-07-24T03:34:09;7.90;;;3.08;;
31004;SDS011;17676;52.254;4.490;2023-07-24T03:36:34;8.85;;;3.45;;
31004;SDS011;17676;52.254;4.490;2023-07-24T03:39:00;7.38;;;2.85;;
31004;SDS011;17676;52.254;4.490;2023-07-24T03:41:26;7.53;;;2.65;;
31004;SDS011;17676;52.254;4.490;2023-07-24T03:43:51;9.32;;;3.05;;
31004;SDS011;17676;52.254;4.490;2023-07-24T03:46:17;7.20;;;2.97;;
31004;SDS011;17676;52.254;4.490;2023-07-24T03:48:42;14.68;;;3.70;;
31004;SDS011;17676;52.254;4.490;2023-07-24T03:51:08;11.43;;;3.33;;
31004;SDS011;17676;52.254;4.490;2023-07-24T03:53:33;9.63;;;2.88;;
31004;SDS011;17676;52.254;4.490;2023-07-24T03:55:59;12.30;;;3.60;;
31004;SDS011;17676;52.254;4.490;2023-07-24T03:58:24;6.50;;;3.05;;
31004;SDS011;17676;52.254;4.490;2023-07-24T04:00:50;11.40;;;3.08;;
31004;SDS011;17676;52.254;4.490;2023-07-24T04:03:15;9.00;;;3.33;;
31004;SDS011;17676;52.254;4.490;2023-07-24T04:05:41;11.88;;;3.28;;
31004;SDS011;17676;52.254;4.490;2023-07-24T04:08:06;12.63;;;3.58;;
31004;SDS011;17676;52.254;4.490;2023-07-24T04:10:32;12.10;;;3.95;;
31004;SDS011;17676;52.254;4.490;2023-07-24T04:12:57;12.90;;;4.07;;
31004;SDS011;17676;52.254;4.490;2023-07-24T04:15:23;11.88;;;4.38;;
31004;SDS011;17676;52.254;4.490;2023-07-24T04:17:48;12.38;;;3.58;;
31004;SDS011;17676;52.254;4.490;2023-07-24T04:20:14;8.60;;;3.58;;
31004;SDS011;17676;52.254;4.490;2023-07-24T04:22:39;13.75;;;3.50;;
31004;SDS011;17676;52.254;4.490;2023-07-24T04:25:05;10.75;;;3.00;;
31004;SDS011;17676;52.254;4.490;2023-07-24T04:27:30;13.77;;;3.50;;
31004;SDS011;17676;52.254;4.490;2023-07-24T04:29:56;9.35;;;3.75;;
31004;SDS011;17676;52.254;4.490;2023-07-24T04:32:21;8.15;;;3.88;;
31004;SDS011;17676;52.254;4.490;2023-07-24T04:34:46;14.13;;;4.07;;
31004;SDS011;17676;52.254;4.490;2023-07-24T04:37:12;12.00;;;3.90;;
31004;SDS011;17676;52.254;4.490;2023-07-24T04:39:40;11.63;;;3.53;;
31004;SDS011;17676;52.254;4.490;2023-07-24T04:42:06;8.32;;;2.85;;
31004;SDS011;17676;52.254;4.490;2023-07-24T04:44:31;11.63;;;3.40;;
31004;SDS011;17676;52.254;4.490;2023-07-24T04:46:57;11.18;;;3.85;;
31004;SDS011;17676;52.254;4.490;2023-07-24T04:49:23;11.63;;;3.28;;
31004;SDS011;17676;52.254;4.490;2023-07-24T04:51:49;10.60;;;3.83;;
31004;SDS011;17676;52.254;4.490;2023-07-24T04:54:15;9.52;;;3.92;;
31004;SDS011;17676;52.254;4.490;2023-07-24T04:56:40;10.38;;;3.33;;
31004;SDS011;17676;52.254;4.490;2023-07-24T04:59:05;9.55;;;3.00;;
31004;SDS011;17676;52.254;4.490;2023-07-24T05:01:31;16.90;;;4.18;;
31004;SDS011;17676;52.254;4.490;2023-07-24T05:03:56;8.82;;;3.28;;
31004;SDS011;17676;52.254;4.490;2023-07-24T05:06:22;16.60;;;4.18;;
31004;SDS011;17676;52.254;4.490;2023-07-24T05:08:48;9.13;;;3.28;;
31004;SDS011;17676;52.254;4.490;2023-07-24T05:11:14;11.57;;;3.17;;
31004;SDS011;17676;52.254;4.490;2023-07-24T05:13:39;10.18;;;3.72;;
31004;SDS011;17676;52.254;4.490;2023-07-24T05:16:04;12.25;;;3.50;;
31004;SDS011;17676;52.254;4.490;2023-07-24T05:18:30;14.95;;;3.58;;
31004;SDS011;17676;52.254;4.490;2023-07-24T05:20:55;8.05;;;3.30;;
31004;SDS011;17676;52.254;4.490;2023-07-24T05:23:20;8.10;;;4.30;;
31004;SDS011;17676;52.254;4.490;2023-07-24T05:25:46;8.45;;;3.42;;
31004;SDS011;17676;52.254;4.490;2023-07-24T05:28:12;9.98;;;3.80;;
31004;SDS011;17676;52.254;4.490;2023-07-24T05:30:37;14.38;;;4.28;;
31004;SDS011;17676;52.254;4.490;2023-07-24T05:33:03;9.63;;;4.13;;
31004;SDS011;17676;52.254;4.490;2023-07-24T05:35:28;9.85;;;3.30;;
31004;SDS011;17676;52.254;4.490;2023-07-24T05:37:53;12.57;;;4.05;;
31004;SDS011;17676;52.254;4.490;2023-07-24T05:40:19;9.02;;;3.83;;
31004;SDS011;17676;52.254;4.490;2023-07-24T05:42:45;10.65;;;3.92;;
31004;SDS011;17676;52.254;4.490;2023-07-24T05:45:11;12.23;;;4.20;;
31004;SDS011;17676;52.254;4.490;2023-07-24T05:47:36;11.85;;;3.90;;
31004;SDS011;17676;52.254;4.490;2023-07-24T05:50:02;9.45;;;4.38;;
31004;SDS011;17676;52.254;4.490;2023-07-24T05:52:28;10.80;;;4.20;;
31004;SDS011;17676;52.254;4.490;2023-07-24T05:54:53;9.95;;;4.15;;
31004;SDS011;17676;52.254;4.490;2023-07-24T05:57:19;13.15;;;3.90;;
31004;SDS011;17676;52.254;4.490;2023-07-24T05:59:44;14.00;;;4.03;;
31004;SDS011;17676;52.254;4.490;2023-07-24T06:02:10;12.13;;;3.83;;
31004;SDS011;17676;52.254;4.490;2023-07-24T06:04:36;11.10;;;3.90;;
31004;SDS011;17676;52.254;4.490;2023-07-24T06:07:01;14.90;;;4.20;;
31004;SDS011;17676;52.254;4.490;2023-07-24T06:09:26;11.60;;;4.28;;
31004;SDS011;17676;52.254;4.490;2023-07-24T06:11:52;12.77;;;4.18;;
31004;SDS011;17676;52.254;4.490;2023-07-24T06:14:17;10.60;;;4.80;;
31004;SDS011;17676;52.254;4.490;2023-07-24T06:16:43;10.88;;;4.18;;
31004;SDS011;17676;52.254;4.490;2023-07-24T06:19:08;10.82;;;4.07;;
31004;SDS011;17676;52.254;4.490;2023-07-24T06:21:34;13.35;;;4.25;;
31004;SDS011;17676;52.254;4.490;2023-07-24T06:23:59;12.38;;;3.30;;
31004;SDS011;17676;52.254;4.490;2023-07-24T06:26:24;14.23;;;4.03;;
31004;SDS011;17676;52.254;4.490;2023-07-24T06:28:50;11.63;;;3.85;;
31004;SDS011;17676;52.254;4.490;2023-07-24T06:31:15;14.48;;;3.45;;
31004;SDS011;17676;52.254;4.490;2023-07-24T06:33:40;13.63;;;3.72;;
31004;SDS011;17676;52.254;4.490;2023-07-24T06:36:09;9.63;;;3.92;;
31004;SDS011;17676;52.254;4.490;2023-07-24T06:38:35;8.40;;;3.00;;
31004;SDS011;17676;52.254;4.490;2023-07-24T06:41:01;11.27;;;4.25;;
31004;SDS011;17676;52.254;4.490;2023-07-24T06:43:26;13.05;;;3.58;;
31004;SDS011;17676;52.254;4.490;2023-07-24T06:45:52;7.45;;;3.15;;
31004;SDS011;17676;52.254;4.490;2023-07-24T06:48:18;6.95;;;2.83;;
31004;SDS011;17676;52.254;4.490;2023-07-24T06:50:44;6.07;;;3.17;;
31004;SDS011;17676;52.254;4.490;2023-07-24T06:53:09;5.20;;;2.75;;
31004;SDS011;17676;52.254;4.490;2023-07-24T06:55:34;6.85;;;2.80;;
31004;SDS011;17676;52.254;4.490;2023-07-24T06:58:00;6.93;;;2.63;;
31004;SDS011;17676;52.254;4.490;2023-07-24T07:00:26;12.73;;;3.05;;
31004;SDS011;17676;52.254;4.490;2023-07-24T07:02:51;5.78;;;2.70;;
31004;SDS011;17676;52.254;4.490;2023-07-24T07:05:16;3.80;;;2.03;;
31004;SDS011;17676;52.254;4.490;2023-07-24T07:07:42;6.40;;;2.83;;
31004;SDS011;17676;52.254;4.490;2023-07-24T07:10:07;5.60;;;2.45;;
31004;SDS011;17676;52.254;4.490;2023-07-24T07:12:33;5.35;;;2.25;;
31004;SDS011;17676;52.254;4.490;2023-07-24T07:14:58;4.75;;;2.47;;
31004;SDS011;17676;52.254;4.490;2023-07-24T07:17:24;4.43;;;3.05;;
31004;SDS011;17676;52.254;4.490;2023-07-24T07:19:49;7.47;;;2.40;;
31004;SDS011;17676;52.254;4.490;2023-07-24T07:22:15;4.57;;;2.22;;
31004;SDS011;17676;52.254;4.490;2023-07-24T07:24:40;5.72;;;2.30;;
31004;SDS011;17676;52.254;4.490;2023-07-24T07:27:06;3.67;;;2.13;;
31004;SDS011;17676;52.254;4.490;2023-07-24T07:29:31;4.03;;;2.25;;
31004;SDS011;17676;52.254;4.490;2023-07-24T07:31:57;7.70;;;2.60;;
31004;SDS011;17676;52.254;4.490;2023-07-24T07:34:22;6.63;;;2.72;;
31004;SDS011;17676;52.254;4.490;2023-07-24T07:36:48;5.60;;;2.40;;
31004;SDS011;17676;52.254;4.490;2023-07-24T07:39:13;6.28;;;2.35;;
31004;SDS011;17676;52.254;4.490;2023-07-24T07:41:39;5.00;;;2.50;;
31004;SDS011;17676;52.254;4.490;2023-07-24T07:44:04;5.93;;;2.22;;
31004;SDS011;17676;52.254;4.490;2023-07-24T07:46:30;4.55;;;1.98;;
31004;SDS011;17676;52.254;4.490;2023-07-24T07:48:55;3.85;;;1.77;;
31004;SDS011;17676;52.254;4.490;2023-07-24T07:51:21;4.57;;;2.00;;
31004;SDS011;17676;52.254;4.490;2023-07-24T07:53:46;3.63;;;1.90;;
31004;SDS011;17676;52.254;4.490;2023-07-24T07:56:12;3.13;;;1.70;;
31004;SDS011;17676;52.254;4.490;2023-07-24T07:58:37;4.68;;;1.27;;
31004;SDS011;17676;52.254;4.490;2023-07-24T08:01:03;5.13;;;1.65;;
31004;SDS011;17676;52.254;4.490;2023-07-24T08:03:31;3.53;;;1.27;;
31004;SDS011;17676;52.254;4.490;2023-07-24T08:05:58;4.72;;;1.15;;
31004;SDS011;17676;52.254;4.490;2023-07-24T08:08:23;4.38;;;1.60;;
31004;SDS011;17676;52.254;4.490;2023-07-24T08:10:49;5.10;;;1.52;;
31004;SDS011;17676;52.254;4.490;2023-07-24T08:13:14;4.03;;;1.73;;
31004;SDS011;17676;52.254;4.490;2023-07-24T08:15:40;3.35;;;1.17;;
31004;SDS011;17676;52.254;4.490;2023-07-24T08:18:05;4.03;;;1.58;;
31004;SDS011;17676;52.254;4.490;2023-07-24T08:20:32;5.45;;;1.40;;
31004;SDS011;17676;52.254;4.490;2023-07-24T08:22:59;3.00;;;1.10;;
31004;SDS011;17676;52.254;4.490;2023-07-24T08:25:25;4.05;;;1.17;;
31004;SDS011;17676;52.254;4.490;2023-07-24T08:27:50;2.40;;;1.67;;
31004;SDS011;17676;52.254;4.490;2023-07-24T08:30:16;5.38;;;1.48;;
31004;SDS011;17676;52.254;4.490;2023-07-24T08:32:42;2.88;;;1.02;;
31004;SDS011;17676;52.254;4.490;2023-07-24T08:35:08;3.33;;;1.50;;
31004;SDS011;17676;52.254;4.490;2023-07-24T08:37:34;4.18;;;1.63;;
31004;SDS011;17676;52.254;4.490;2023-07-24T08:39:59;3.42;;;1.58;;
31004;SDS011;17676;52.254;4.490;2023-07-24T08:42:25;2.67;;;1.50;;
31004;SDS011;17676;52.254;4.490;2023-07-24T08:44:50;3.85;;;1.90;;
31004;SDS011;17676;52.254;4.490;2023-07-24T08:47:18;2.92;;;1.50;;
31004;SDS011;17676;52.254;4.490;2023-07-24T08:49:44;2.60;;;1.40;;
31004;SDS011;17676;52.254;4.490;2023-07-24T08:52:12;2.70;;;1.35;;
31004;SDS011;17676;52.254;4.490;2023-07-24T08:54:41;5.35;;;1.58;;
31004;SDS011;17676;52.254;4.490;2023-07-24T08:57:07;4.20;;;1.75;;
31004;SDS011;17676;52.254;4.490;2023-07-24T08:59:33;3.40;;;1.45;;
31004;SDS011;17676;52.254;4.490;2023-07-24T09:01:59;4.15;;;1.63;;
31004;SDS011;17676;52.254;4.490;2023-07-24T09:04:24;3.63;;;1.60;;
31004;SDS011;17676;52.254;4.490;2023-07-24T09:06:50;6.60;;;1.50;;
31004;SDS011;17676;52.254;4.490;2023-07-24T09:09:16;3.30;;;1.80;;
31004;SDS011;17676;52.254;4.490;2023-07-24T09:11:48;7.68;;;3.08;;
31004;SDS011;17676;52.254;4.490;2023-07-24T09:14:22;3.85;;;2.13;;
31004;SDS011;17676;52.254;4.490;2023-07-24T09:17:08;4.38;;;2.20;;
31004;SDS011;17676;52.254;4.490;2023-07-24T09:19:34;5.45;;;1.83;;
31004;SDS011;17676;52.254;4.490;2023-07-24T09:22:07;3.33;;;1.55;;
31004;SDS011;17676;52.254;4.490;2023-07-24T09:24:37;3.20;;;1.60;;
31004;SDS011;17676;52.254;4.490;2023-07-24T09:27:04;5.40;;;1.52;;
31004;SDS011;17676;52.254;4.490;2023-07-24T09:29:31;4.13;;;1.67;;
31004;SDS011;17676;52.254;4.490;2023-07-24T09:31:58;6.30;;;2.28;;
31004;SDS011;17676;52.254;4.490;2023-07-24T09:34:24;2.78;;;1.80;;
31004;SDS011;17676;52.254;4.490;2023-07-24T09:36:50;4.35;;;1.25;;
31004;SDS011;17676;52.254;4.490;2023-07-24T09:39:22;3.80;;;1.90;;
31004;SDS011;17676;52.254;4.490;2023-07-24T09:41:48;5.45;;;2.05;;
31004;SDS011;17676;52.254;4.490;2023-07-24T09:44:15;5.28;;;2.20;;
31004;SDS011;17676;52.254;4.490;2023-07-24T09:46:40;4.45;;;1.52;;
31004;SDS011;17676;52.254;4.490;2023-07-24T09:49:08;1.50;;;1.30;;
31004;SDS011;17676;52.254;4.490;2023-07-24T09:51:34;4.03;;;1.80;;
31004;SDS011;17676;52.254;4.490;2023-07-24T09:54:03;4.13;;;2.08;;
31004;SDS011;17676;52.254;4.490;2023-07-24T09:56:35;3.65;;;2.17;;
31004;SDS011;17676;52.254;4.490;2023-07-24T09:59:02;3.13;;;2.00;;
31004;SDS011;17676;52.254;4.490;2023-07-24T10:01:30;3.38;;;1.88;;
31004;SDS011;17676;52.254;4.490;2023-07-24T10:03:57;3.63;;;1.90;;
31004;SDS011;17676;52.254;4.490;2023-07-24T10:06:24;5.90;;;1.75;;
31004;SDS011;17676;52.254;4.490;2023-07-24T10:08:49;3.08;;;2.15;;
31004;SDS011;17676;52.254;4.490;2023-07-24T10:11:17;5.30;;;2.70;;
31004;SDS011;17676;52.254;4.490;2023-07-24T10:13:44;7.15;;;2.00;;
31004;SDS011;17676;52.254;4.490;2023-07-24T10:16:10;4.70;;;2.47;;
31004;SDS011;17676;52.254;4.490;2023-07-24T10:18:41;3.22;;;2.25;;
31004;SDS011;17676;52.254;4.490;2023-07-24T10:21:09;5.75;;;2.78;;
31004;SDS011;17676;52.254;4.490;2023-07-24T10:23:36;5.75;;;2.17;;
31004;SDS011;17676;52.254;4.490;2023-07-24T10:26:05;4.88;;;2.33;;
31004;SDS011;17676;52.254;4.490;2023-07-24T10:28:32;3.83;;;2.20;;
31004;SDS011;17676;52.254;4.490;2023-07-24T10:31:00;5.40;;;2.05;;
31004;SDS011;17676;52.254;4.490;2023-07-24T10:33:29;6.65;;;1.80;;
31004;SDS011;17676;52.254;4.490;2023-07-24T10:36:03;3.63;;;2.40;;
31004;SDS011;17676;52.254;4.490;2023-07-24T10:38:39;5.03;;;2.10;;
31004;SDS011;17676;52.254;4.490;2023-07-24T10:41:07;3.17;;;2.88;;
31004;SDS011;17676;52.254;4.490;2023-07-24T10:43:40;5.55;;;2.60;;
31004;SDS011;17676;52.254;4.490;2023-07-24T10:46:05;3.35;;;2.17;;
31004;SDS011;17676;52.254;4.490;2023-07-24T10:48:31;3.70;;;1.67;;
31004;SDS011;17676;52.254;4.490;2023-07-24T10:50:56;6.38;;;2.20;;
31004;SDS011;17676;52.254;4.490;2023-07-24T10:53:22;4.32;;;2.20;;
31004;SDS011;17676;52.254;4.490;2023-07-24T10:55:48;6.65;;;2.35;;
31004;SDS011;17676;52.254;4.490;2023-07-24T10:58:17;5.00;;;2.20;;
31004;SDS011;17676;52.254;4.490;2023-07-24T11:00:43;4.85;;;1.98;;
31004;SDS011;17676;52.254;4.490;2023-07-24T11:03:09;5.70;;;2.10;;
31004;SDS011;17676;52.254;4.490;2023-07-24T11:05:38;3.70;;;2.05;;
31004;SDS011;17676;52.254;4.490;2023-07-24T11:08:11;2.60;;;2.08;;
31004;SDS011;17676;52.254;4.490;2023-07-24T11:10:53;1.77;;;1.52;;
31004;SDS011;17676;52.254;4.490;2023-07-24T11:13:21;1.65;;;1.30;;
31004;SDS011;17676;52.254;4.490;2023-07-24T11:15:51;4.43;;;0.90;;
31004;SDS011;17676;52.254;4.490;2023-07-24T11:18:17;1.58;;;0.60;;
31004;SDS011;17676;52.254;4.490;2023-07-24T11:20:47;3.33;;;0.95;;
31004;SDS011;17676;52.254;4.490;2023-07-24T11:23:13;1.33;;;0.40;;
31004;SDS011;17676;52.254;4.490;2023-07-24T11:25:39;0.35;;;0.35;;
31004;SDS011;17676;52.254;4.490;2023-07-24T11:28:06;0.93;;;0.60;;
31004;SDS011;17676;52.254;4.490;2023-07-24T11:30:33;0.50;;;0.30;;
31004;SDS011;17676;52.254;4.490;2023-07-24T11:32:59;1.23;;;0.40;;
31004;SDS011;17676;52.254;4.490;2023-07-24T11:35:26;0.95;;;0.40;;
31004;SDS011;17676;52.254;4.490;2023-07-24T11:37:52;0.35;;;0.30;;
31004;SDS011;17676;52.254;4.490;2023-07-24T11:40:18;0.20;;;0.20;;
31004;SDS011;17676;52.254;4.490;2023-07-24T11:42:46;1.00;;;0.20;;
31004;SDS011;17676;52.254;4.490;2023-07-24T11:45:12;0.30;;;0.20;;
31004;SDS011;17676;52.254;4.490;2023-07-24T11:47:56;0.68;;;0.20;;
31004;SDS011;17676;52.254;4.490;2023-07-24T11:50:22;0.65;;;0.20;;
31004;SDS011;17676;52.254;4.490;2023-07-24T11:52:49;2.30;;;0.20;;
31004;SDS011;17676;52.254;4.490;2023-07-24T11:55:20;0.63;;;0.20;;
31004;SDS011;17676;52.254;4.490;2023-07-24T11:57:56;0.50;;;0.20;;
31004;SDS011;17676;52.254;4.490;2023-07-24T12:00:23;2.03;;;0.20;;
31004;SDS011;17676;52.254;4.490;2023-07-24T12:02:48;1.88;;;0.20;;
31004;SDS011;17676;52.254;4.490;2023-07-24T12:05:14;2.85;;;0.30;;
31004;SDS011;17676;52.254;4.490;2023-07-24T12:07:42;2.40;;;0.22;;
31004;SDS011;17676;52.254;4.490;2023-07-24T12:10:09;1.58;;;0.20;;
31004;SDS011;17676;52.254;4.490;2023-07-24T12:12:45;5.50;;;0.38;;
31004;SDS011;17676;52.254;4.490;2023-07-24T12:15:12;9.90;;;0.30;;
31004;SDS011;17676;52.254;4.490;2023-07-24T12:17:38;4.07;;;0.20;;
31004;SDS011;17676;52.254;4.490;2023-07-24T12:20:05;3.75;;;0.57;;
31004;SDS011;17676;52.254;4.490;2023-07-24T12:22:33;7.72;;;0.30;;
31004;SDS011;17676;52.254;4.490;2023-07-24T12:24:59;3.03;;;0.47;;
31004;SDS011;17676;52.254;4.490;2023-07-24T12:27:25;2.28;;;0.20;;
31004;SDS011;17676;52.254;4.490;2023-07-24T12:29:51;4.97;;;0.30;;
31004;SDS011;17676;52.254;4.490;2023-07-24T12:32:17;3.15;;;0.30;;
31004;SDS011;17676;52.254;4.490;2023-07-24T12:34:44;1.95;;;0.30;;
31004;SDS011;17676;52.254;4.490;2023-07-24T12:37:12;2.92;;;0.13;;
31004;SDS011;17676;52.254;4.490;2023-07-24T12:39:37;3.35;;;0.30;;
31004;SDS011;17676;52.254;4.490;2023-07-24T12:42:03;3.42;;;0.20;;
31004;SDS011;17676;52.254;4.490;2023-07-24T12:44:29;2.97;;;0.28;;
31004;SDS011;17676;52.254;4.490;2023-07-24T12:46:55;6.30;;;0.30;;
31004;SDS011;17676;52.254;4.490;2023-07-24T12:49:20;4.22;;;0.20;;
31004;SDS011;17676;52.254;4.490;2023-07-24T12:51:46;2.53;;;0.38;;
31004;SDS011;17676;52.254;4.490;2023-07-24T12:54:12;5.38;;;0.32;;
31004;SDS011;17676;52.254;4.490;2023-07-24T12:56:38;2.33;;;0.30;;
31004;SDS011;17676;52.254;4.490;2023-07-24T12:59:03;6.07;;;0.28;;
31004;SDS011;17676;52.254;4.490;2023-07-24T13:01:29;3.53;;;0.28;;
31004;SDS011;17676;52.254;4.490;2023-07-24T13:03:54;4.15;;;0.20;;
31004;SDS011;17676;52.254;4.490;2023-07-24T13:06:20;5.13;;;0.30;;
31004;SDS011;17676;52.254;4.490;2023-07-24T13:08:47;2.83;;;0.30;;
31004;SDS011;17676;52.254;4.490;2023-07-24T13:11:13;2.42;;;0.20;;
31004;SDS011;17676;52.254;4.490;2023-07-24T13:13:39;6.55;;;0.38;;
31004;SDS011;17676;52.254;4.490;2023-07-24T13:16:05;3.03;;;0.22;;
31004;SDS011;17676;52.254;4.490;2023-07-24T13:18:30;4.50;;;0.30;;
31004;SDS011;17676;52.254;4.490;2023-07-24T13:20:56;2.78;;;0.28;;
31004;SDS011;17676;52.254;4.490;2023-07-24T13:23:22;3.45;;;0.50;;
31004;SDS011;17676;52.254;4.490;2023-07-24T13:25:47;2.83;;;0.20;;
31004;SDS011;17676;52.254;4.490;2023-07-24T13:28:13;3.30;;;0.25;;
31004;SDS011;17676;52.254;4.490;2023-07-24T13:30:38;4.78;;;0.22;;
31004;SDS011;17676;52.254;4.490;2023-07-24T13:33:04;5.47;;;0.20;;
31004;SDS011;17676;52.254;4.490;2023-07-24T13:35:29;3.08;;;0.20;;
31004;SDS011;17676;52.254;4.490;2023-07-24T13:37:54;3.15;;;0.20;;
31004;SDS011;17676;52.254;4.490;2023-07-24T13:40:20;3.13;;;0.32;;
31004;SDS011;17676;52.254;4.490;2023-07-24T13:42:45;7.53;;;0.57;;
31004;SDS011;17676;52.254;4.490;2023-07-24T13:45:11;5.47;;;0.30;;
31004;SDS011;17676;52.254;4.490;2023-07-24T13:47:36;4.90;;;0.70;;
31004;SDS011;17676;52.254;4.490;2023-07-24T13:50:02;2.38;;;0.20;;
31004;SDS011;17676;52.254;4.490;2023-07-24T13:52:28;9.73;;;0.50;;
31004;SDS011;17676;52.254;4.490;2023-07-24T13:54:54;4.40;;;0.30;;
31004;SDS011;17676;52.254;4.490;2023-07-24T13:57:20;2.60;;;0.30;;
31004;SDS011;17676;52.254;4.490;2023-07-24T13:59:46;4.82;;;0.38;;
31004;SDS011;17676;52.254;4.490;2023-07-24T14:02:12;5.47;;;0.50;;
31004;SDS011;17676;52.254;4.490;2023-07-24T14:04:38;2.10;;;0.20;;
31004;SDS011;17676;52.254;4.490;2023-07-24T14:07:03;2.40;;;0.10;;
31004;SDS011;17676;52.254;4.490;2023-07-24T14:09:29;5.80;;;0.28;;
31004;SDS011;17676;52.254;4.490;2023-07-24T14:11:55;1.92;;;0.20;;
31004;SDS011;17676;52.254;4.490;2023-07-24T14:14:21;2.92;;;0.20;;
31004;SDS011;17676;52.254;4.490;2023-07-24T14:16:48;1.83;;;0.10;;
31004;SDS011;17676;52.254;4.490;2023-07-24T14:19:14;3.50;;;0.20;;
31004;SDS011;17676;52.254;4.490;2023-07-24T14:21:40;2.60;;;0.20;;
31004;SDS011;17676;52.254;4.490;2023-07-24T14:24:05;2.15;;;0.10;;
31004;SDS011;17676;52.254;4.490;2023-07-24T14:26:31;0.88;;;0.10;;
31004;SDS011;17676;52.254;4.490;2023-07-24T14:28:56;0.55;;;0.10;;
31004;SDS011;17676;52.254;4.490;2023-07-24T14:31:23;1.45;;;0.10;;
31004;SDS011;17676;52.254;4.490;2023-07-24T14:33:48;2.17;;;0.20;;
31004;SDS011;17676;52.254;4.490;2023-07-24T14:36:14;1.75;;;0.20;;
31004;SDS011;17676;52.254;4.490;2023-07-24T14:38:39;2.50;;;0.10;;
31004;SDS011;17676;52.254;4.490;2023-07-24T14:41:04;1.27;;;0.00;;
31004;SDS011;17676;52.254;4.490;2023-07-24T14:43:30;1.05;;;0.10;;
31004;SDS011;17676;52.254;4.490;2023-07-24T14:45:55;2.53;;;0.10;;